[2025-03-14 00:00:00, 2025-03-14 23:59:59] previous next
| time | temperature | air pressure | humidity | solar radiation | wind speed |
|---|---|---|---|---|---|
| 2025-03-14 07:50:43 | 2.5 | 998.2 | 90.0 | 0.0 | 0.0 |
| 2025-03-14 08:12:51 | 2.7 | 998.2 | 89.0 | 50.4 | 0.6 |
| 2025-03-14 08:32:51 | 2.9 | 998.5 | 89.0 | 39.6 | 0.0 |
| 2025-03-14 08:52:51 | 4.9 | 998.5 | 81.0 | 52.2 | 1.1 |
| 2025-03-14 09:12:51 | 4.8 | 998.5 | 78.0 | 65.8 | 0.6 |
| 2025-03-14 09:32:51 | 5.4 | 998.9 | 75.0 | 42.8 | 2.7 |
| 2025-03-14 09:52:51 | 5.1 | 998.9 | 74.0 | 73.2 | 1.3 |
| 2025-03-14 10:12:52 | 4.9 | 999.2 | 73.0 | 58.2 | 0.6 |
| 2025-03-14 10:32:50 | 6.6 | 999.2 | 70.0 | 200.7 | 2.7 |
| 2025-03-14 10:52:51 | 6.5 | 999.5 | 67.0 | 276.0 | 2.8 |
| 2025-03-14 11:12:50 | 6.1 | 999.5 | 67.0 | 83.4 | 1.4 |
| 2025-03-14 11:32:51 | 6.2 | 999.9 | 65.0 | 91.8 | 1.4 |
| 2025-03-14 11:52:50 | 8.8 | 999.9 | 60.0 | 318.5 | 0.4 |
| 2025-03-14 12:12:51 | 6.4 | 999.9 | 65.0 | 102.7 | 0.6 |
| 2025-03-14 12:32:50 | 6.4 | 1000.2 | 65.0 | 96.5 | 2.7 |
| 2025-03-14 12:55:00 | 6.8 | 1000.2 | 61.0 | 0.0 | 0.0 |
| 2025-03-14 13:16:36 | 7.0 | 1000.2 | 61.0 | 114.0 | 1.1 |
| 2025-03-14 13:36:36 | 6.8 | 1000.6 | 62.0 | 89.0 | 3.2 |
| 2025-03-14 13:56:36 | 7.1 | 1000.2 | 63.0 | 106.9 | 2.0 |
| 2025-03-14 14:16:35 | 7.6 | 1000.6 | 61.0 | 317.4 | 1.7 |
| 2025-03-14 14:36:36 | 7.4 | 1000.9 | 57.0 | 155.5 | 0.8 |
| 2025-03-14 14:59:06 | 6.7 | 1000.9 | 66.0 | 0.0 | 0.0 |
CSV export: /station/IWELLEN5/data?period=20250314T000000/20250314T235959&format=csv&tz=GMT